sensor_id;sensor_type;location;lat;lon;timestamp;P1;durP1;ratioP1;P2;durP2;ratioP2
70927;SDS011;58587;53.034;18.576;2023-08-24T00:00:29;7.57;;;3.80;;
70927;SDS011;58587;53.034;18.576;2023-08-24T00:02:55;6.33;;;3.93;;
70927;SDS011;58587;53.034;18.576;2023-08-24T00:05:20;5.27;;;3.60;;
70927;SDS011;58587;53.034;18.576;2023-08-24T00:07:46;5.70;;;3.60;;
70927;SDS011;58587;53.034;18.576;2023-08-24T00:10:13;5.43;;;3.53;;
70927;SDS011;58587;53.034;18.576;2023-08-24T00:12:38;9.90;;;3.80;;
70927;SDS011;58587;53.034;18.576;2023-08-24T00:15:04;7.43;;;3.90;;
70927;SDS011;58587;53.034;18.576;2023-08-24T00:17:33;8.77;;;4.28;;
70927;SDS011;58587;53.034;18.576;2023-08-24T00:19:59;9.25;;;3.67;;
70927;SDS011;58587;53.034;18.576;2023-08-24T00:22:24;8.47;;;3.60;;
70927;SDS011;58587;53.034;18.576;2023-08-24T00:24:49;10.37;;;3.90;;
70927;SDS011;58587;53.034;18.576;2023-08-24T00:27:15;5.43;;;3.60;;
70927;SDS011;58587;53.034;18.576;2023-08-24T00:29:40;6.67;;;3.80;;
70927;SDS011;58587;53.034;18.576;2023-08-24T00:32:05;8.93;;;3.60;;
70927;SDS011;58587;53.034;18.576;2023-08-24T00:34:31;9.37;;;4.93;;
70927;SDS011;58587;53.034;18.576;2023-08-24T00:36:57;10.88;;;3.83;;
70927;SDS011;58587;53.034;18.576;2023-08-24T00:39:22;8.03;;;3.80;;
70927;SDS011;58587;53.034;18.576;2023-08-24T00:41:47;8.20;;;3.97;;
70927;SDS011;58587;53.034;18.576;2023-08-24T00:44:12;9.27;;;3.53;;
70927;SDS011;58587;53.034;18.576;2023-08-24T00:46:38;7.73;;;3.90;;
70927;SDS011;58587;53.034;18.576;2023-08-24T00:49:03;8.13;;;3.97;;
70927;SDS011;58587;53.034;18.576;2023-08-24T00:51:28;10.77;;;3.70;;
70927;SDS011;58587;53.034;18.576;2023-08-24T00:53:54;8.40;;;3.70;;
70927;SDS011;58587;53.034;18.576;2023-08-24T00:56:19;6.47;;;4.03;;
70927;SDS011;58587;53.034;18.576;2023-08-24T00:58:49;7.15;;;3.90;;
70927;SDS011;58587;53.034;18.576;2023-08-24T01:01:15;5.17;;;3.70;;
70927;SDS011;58587;53.034;18.576;2023-08-24T01:03:42;9.25;;;3.70;;
70927;SDS011;58587;53.034;18.576;2023-08-24T01:06:07;7.23;;;3.97;;
70927;SDS011;58587;53.034;18.576;2023-08-24T01:08:32;7.70;;;3.67;;
70927;SDS011;58587;53.034;18.576;2023-08-24T01:13:42;5.43;;;3.70;;
70927;SDS011;58587;53.034;18.576;2023-08-24T01:16:18;5.70;;;3.60;;
70927;SDS011;58587;53.034;18.576;2023-08-24T01:18:45;7.87;;;4.03;;
70927;SDS011;58587;53.034;18.576;2023-08-24T01:21:12;7.18;;;3.70;;
70927;SDS011;58587;53.034;18.576;2023-08-24T01:23:45;7.97;;;3.65;;
70927;SDS011;58587;53.034;18.576;2023-08-24T01:26:19;7.18;;;4.10;;
70927;SDS011;58587;53.034;18.576;2023-08-24T01:28:45;8.10;;;3.90;;
70927;SDS011;58587;53.034;18.576;2023-08-24T01:31:15;5.53;;;3.67;;
70927;SDS011;58587;53.034;18.576;2023-08-24T01:33:41;5.97;;;3.65;;
70927;SDS011;58587;53.034;18.576;2023-08-24T01:36:11;7.85;;;4.10;;
70927;SDS011;58587;53.034;18.576;2023-08-24T01:38:38;8.55;;;4.13;;
70927;SDS011;58587;53.034;18.576;2023-08-24T01:41:22;11.43;;;4.23;;
70927;SDS011;58587;53.034;18.576;2023-08-24T01:43:52;8.35;;;4.10;;
70927;SDS011;58587;53.034;18.576;2023-08-24T01:46:19;7.18;;;3.42;;
70927;SDS011;58587;53.034;18.576;2023-08-24T01:48:46;7.18;;;3.80;;
70927;SDS011;58587;53.034;18.576;2023-08-24T01:51:12;5.63;;;3.70;;
70927;SDS011;58587;53.034;18.576;2023-08-24T01:53:40;4.87;;;3.80;;
70927;SDS011;58587;53.034;18.576;2023-08-24T01:56:10;9.90;;;4.38;;
70927;SDS011;58587;53.034;18.576;2023-08-24T01:58:36;7.15;;;3.40;;
70927;SDS011;58587;53.034;18.576;2023-08-24T02:01:01;5.67;;;3.40;;
70927;SDS011;58587;53.034;18.576;2023-08-24T02:03:27;8.33;;;3.60;;
70927;SDS011;58587;53.034;18.576;2023-08-24T02:05:52;4.78;;;3.63;;
70927;SDS011;58587;53.034;18.576;2023-08-24T02:08:17;6.93;;;3.80;;
70927;SDS011;58587;53.034;18.576;2023-08-24T02:10:43;5.63;;;3.47;;
70927;SDS011;58587;53.034;18.576;2023-08-24T02:13:08;6.17;;;3.90;;
70927;SDS011;58587;53.034;18.576;2023-08-24T02:15:33;9.80;;;3.47;;
70927;SDS011;58587;53.034;18.576;2023-08-24T02:17:58;6.43;;;3.37;;
70927;SDS011;58587;53.034;18.576;2023-08-24T02:20:24;7.47;;;3.93;;
70927;SDS011;58587;53.034;18.576;2023-08-24T02:22:49;9.57;;;4.00;;
70927;SDS011;58587;53.034;18.576;2023-08-24T02:25:14;6.57;;;3.53;;
70927;SDS011;58587;53.034;18.576;2023-08-24T02:27:40;6.77;;;3.87;;
70927;SDS011;58587;53.034;18.576;2023-08-24T02:30:05;7.33;;;3.73;;
70927;SDS011;58587;53.034;18.576;2023-08-24T02:32:31;8.80;;;3.63;;
70927;SDS011;58587;53.034;18.576;2023-08-24T02:34:57;6.80;;;3.80;;
70927;SDS011;58587;53.034;18.576;2023-08-24T02:37:22;6.80;;;3.60;;
70927;SDS011;58587;53.034;18.576;2023-08-24T02:39:47;6.43;;;3.80;;
70927;SDS011;58587;53.034;18.576;2023-08-24T02:42:13;6.80;;;3.47;;
70927;SDS011;58587;53.034;18.576;2023-08-24T02:44:38;6.03;;;3.57;;
70927;SDS011;58587;53.034;18.576;2023-08-24T02:47:04;6.40;;;3.80;;
70927;SDS011;58587;53.034;18.576;2023-08-24T02:49:29;6.60;;;3.67;;
70927;SDS011;58587;53.034;18.576;2023-08-24T02:51:55;6.45;;;3.90;;
70927;SDS011;58587;53.034;18.576;2023-08-24T02:54:20;7.70;;;4.20;;
70927;SDS011;58587;53.034;18.576;2023-08-24T02:56:45;6.77;;;4.20;;
70927;SDS011;58587;53.034;18.576;2023-08-24T02:59:11;9.27;;;4.70;;
70927;SDS011;58587;53.034;18.576;2023-08-24T03:01:36;6.83;;;4.53;;
70927;SDS011;58587;53.034;18.576;2023-08-24T03:04:03;7.82;;;4.75;;
70927;SDS011;58587;53.034;18.576;2023-08-24T03:06:29;6.20;;;4.82;;
70927;SDS011;58587;53.034;18.576;2023-08-24T03:08:54;7.37;;;4.50;;
70927;SDS011;58587;53.034;18.576;2023-08-24T03:11:20;6.23;;;4.30;;
70927;SDS011;58587;53.034;18.576;2023-08-24T03:13:45;7.07;;;4.20;;
70927;SDS011;58587;53.034;18.576;2023-08-24T03:16:10;6.53;;;4.67;;
70927;SDS011;58587;53.034;18.576;2023-08-24T03:18:35;9.40;;;5.10;;
70927;SDS011;58587;53.034;18.576;2023-08-24T03:21:01;8.57;;;4.80;;
70927;SDS011;58587;53.034;18.576;2023-08-24T03:23:26;8.03;;;5.13;;
70927;SDS011;58587;53.034;18.576;2023-08-24T03:25:52;9.70;;;4.50;;
70927;SDS011;58587;53.034;18.576;2023-08-24T03:28:18;7.43;;;4.90;;
70927;SDS011;58587;53.034;18.576;2023-08-24T03:30:47;7.97;;;4.90;;
70927;SDS011;58587;53.034;18.576;2023-08-24T03:33:14;10.30;;;5.35;;
70927;SDS011;58587;53.034;18.576;2023-08-24T03:35:39;8.13;;;5.20;;
70927;SDS011;58587;53.034;18.576;2023-08-24T03:38:05;7.60;;;4.68;;
70927;SDS011;58587;53.034;18.576;2023-08-24T03:40:31;6.60;;;4.53;;
70927;SDS011;58587;53.034;18.576;2023-08-24T03:42:56;5.87;;;4.60;;
70927;SDS011;58587;53.034;18.576;2023-08-24T03:45:22;8.07;;;4.13;;
70927;SDS011;58587;53.034;18.576;2023-08-24T03:47:48;6.78;;;4.22;;
70927;SDS011;58587;53.034;18.576;2023-08-24T03:50:13;8.10;;;4.53;;
70927;SDS011;58587;53.034;18.576;2023-08-24T03:52:39;8.93;;;3.90;;
70927;SDS011;58587;53.034;18.576;2023-08-24T03:55:05;7.77;;;4.20;;
70927;SDS011;58587;53.034;18.576;2023-08-24T03:57:31;9.60;;;4.25;;
70927;SDS011;58587;53.034;18.576;2023-08-24T03:59:57;5.70;;;3.97;;
70927;SDS011;58587;53.034;18.576;2023-08-24T04:02:22;5.83;;;4.03;;
70927;SDS011;58587;53.034;18.576;2023-08-24T04:04:48;6.73;;;5.43;;
70927;SDS011;58587;53.034;18.576;2023-08-24T04:07:13;8.00;;;4.43;;
70927;SDS011;58587;53.034;18.576;2023-08-24T04:09:38;6.00;;;3.97;;
70927;SDS011;58587;53.034;18.576;2023-08-24T04:12:05;17.05;;;9.15;;
70927;SDS011;58587;53.034;18.576;2023-08-24T04:14:31;10.75;;;6.40;;
70927;SDS011;58587;53.034;18.576;2023-08-24T04:16:56;8.97;;;4.67;;
70927;SDS011;58587;53.034;18.576;2023-08-24T04:19:21;8.63;;;4.60;;
70927;SDS011;58587;53.034;18.576;2023-08-24T04:21:47;5.10;;;3.83;;
70927;SDS011;58587;53.034;18.576;2023-08-24T04:24:12;8.03;;;4.37;;
70927;SDS011;58587;53.034;18.576;2023-08-24T04:26:37;6.83;;;4.33;;
70927;SDS011;58587;53.034;18.576;2023-08-24T04:29:03;7.90;;;4.53;;
70927;SDS011;58587;53.034;18.576;2023-08-24T04:31:28;6.60;;;4.10;;
70927;SDS011;58587;53.034;18.576;2023-08-24T04:33:54;9.48;;;4.55;;
70927;SDS011;58587;53.034;18.576;2023-08-24T04:36:19;7.03;;;4.80;;
70927;SDS011;58587;53.034;18.576;2023-08-24T04:38:44;6.40;;;4.30;;
70927;SDS011;58587;53.034;18.576;2023-08-24T04:41:09;5.50;;;3.93;;
70927;SDS011;58587;53.034;18.576;2023-08-24T04:43:37;7.28;;;4.28;;
70927;SDS011;58587;53.034;18.576;2023-08-24T04:46:02;7.33;;;4.27;;
70927;SDS011;58587;53.034;18.576;2023-08-24T04:48:27;8.80;;;4.73;;
70927;SDS011;58587;53.034;18.576;2023-08-24T04:50:57;8.32;;;4.65;;
70927;SDS011;58587;53.034;18.576;2023-08-24T04:53:23;10.30;;;5.30;;
70927;SDS011;58587;53.034;18.576;2023-08-24T04:55:48;11.17;;;4.90;;
70927;SDS011;58587;53.034;18.576;2023-08-24T04:58:14;7.37;;;4.60;;
70927;SDS011;58587;53.034;18.576;2023-08-24T05:00:39;6.77;;;4.13;;
70927;SDS011;58587;53.034;18.576;2023-08-24T05:03:05;9.03;;;4.57;;
70927;SDS011;58587;53.034;18.576;2023-08-24T05:05:32;6.17;;;4.53;;
70927;SDS011;58587;53.034;18.576;2023-08-24T05:07:59;6.88;;;4.45;;
70927;SDS011;58587;53.034;18.576;2023-08-24T05:10:25;10.30;;;5.30;;
70927;SDS011;58587;53.034;18.576;2023-08-24T05:12:50;7.37;;;4.60;;
70927;SDS011;58587;53.034;18.576;2023-08-24T05:15:16;7.57;;;4.33;;
70927;SDS011;58587;53.034;18.576;2023-08-24T05:17:41;6.68;;;5.07;;
70927;SDS011;58587;53.034;18.576;2023-08-24T05:20:07;8.40;;;4.60;;
70927;SDS011;58587;53.034;18.576;2023-08-24T05:22:35;11.98;;;5.10;;
70927;SDS011;58587;53.034;18.576;2023-08-24T05:25:00;5.90;;;4.57;;
70927;SDS011;58587;53.034;18.576;2023-08-24T05:27:25;6.43;;;4.33;;
70927;SDS011;58587;53.034;18.576;2023-08-24T05:29:51;6.10;;;4.43;;
70927;SDS011;58587;53.034;18.576;2023-08-24T05:32:16;11.90;;;4.97;;
70927;SDS011;58587;53.034;18.576;2023-08-24T05:34:41;8.37;;;5.03;;
70927;SDS011;58587;53.034;18.576;2023-08-24T05:37:06;7.47;;;4.50;;
70927;SDS011;58587;53.034;18.576;2023-08-24T05:39:32;9.30;;;5.03;;
70927;SDS011;58587;53.034;18.576;2023-08-24T05:41:57;7.57;;;4.25;;
70927;SDS011;58587;53.034;18.576;2023-08-24T05:44:22;6.73;;;4.00;;
70927;SDS011;58587;53.034;18.576;2023-08-24T05:46:48;6.80;;;4.27;;
70927;SDS011;58587;53.034;18.576;2023-08-24T05:49:13;11.57;;;6.33;;
70927;SDS011;58587;53.034;18.576;2023-08-24T05:51:39;10.03;;;5.10;;
70927;SDS011;58587;53.034;18.576;2023-08-24T05:54:04;7.20;;;4.97;;
70927;SDS011;58587;53.034;18.576;2023-08-24T05:56:29;6.43;;;3.97;;
70927;SDS011;58587;53.034;18.576;2023-08-24T05:58:57;7.80;;;4.07;;
70927;SDS011;58587;53.034;18.576;2023-08-24T06:01:23;8.02;;;3.80;;
70927;SDS011;58587;53.034;18.576;2023-08-24T06:03:49;6.80;;;4.10;;
70927;SDS011;58587;53.034;18.576;2023-08-24T06:06:14;6.82;;;3.60;;
70927;SDS011;58587;53.034;18.576;2023-08-24T06:08:40;7.80;;;4.43;;
70927;SDS011;58587;53.034;18.576;2023-08-24T06:11:05;7.43;;;4.10;;
70927;SDS011;58587;53.034;18.576;2023-08-24T06:13:31;7.93;;;3.90;;
70927;SDS011;58587;53.034;18.576;2023-08-24T06:15:57;6.40;;;3.80;;
70927;SDS011;58587;53.034;18.576;2023-08-24T06:18:22;7.60;;;4.37;;
70927;SDS011;58587;53.034;18.576;2023-08-24T06:20:47;6.28;;;4.03;;
70927;SDS011;58587;53.034;18.576;2023-08-24T06:23:16;8.73;;;4.07;;
70927;SDS011;58587;53.034;18.576;2023-08-24T06:25:42;7.82;;;3.42;;
70927;SDS011;58587;53.034;18.576;2023-08-24T06:28:08;7.28;;;4.00;;
70927;SDS011;58587;53.034;18.576;2023-08-24T06:30:37;8.05;;;4.05;;
70927;SDS011;58587;53.034;18.576;2023-08-24T06:33:04;5.28;;;3.90;;
70927;SDS011;58587;53.034;18.576;2023-08-24T06:35:30;7.40;;;4.00;;
70927;SDS011;58587;53.034;18.576;2023-08-24T06:37:55;7.70;;;4.05;;
70927;SDS011;58587;53.034;18.576;2023-08-24T06:40:20;7.47;;;3.53;;
70927;SDS011;58587;53.034;18.576;2023-08-24T06:42:46;5.57;;;3.27;;
70927;SDS011;58587;53.034;18.576;2023-08-24T06:45:11;5.57;;;3.50;;
70927;SDS011;58587;53.034;18.576;2023-08-24T06:47:37;5.47;;;3.20;;
70927;SDS011;58587;53.034;18.576;2023-08-24T06:50:02;5.53;;;3.20;;
70927;SDS011;58587;53.034;18.576;2023-08-24T06:52:28;6.77;;;3.37;;
70927;SDS011;58587;53.034;18.576;2023-08-24T06:54:53;5.83;;;3.00;;
70927;SDS011;58587;53.034;18.576;2023-08-24T06:57:21;7.40;;;3.05;;
70927;SDS011;58587;53.034;18.576;2023-08-24T06:59:46;5.43;;;3.70;;
70927;SDS011;58587;53.034;18.576;2023-08-24T07:02:12;8.00;;;3.07;;
70927;SDS011;58587;53.034;18.576;2023-08-24T07:04:37;7.27;;;2.93;;
70927;SDS011;58587;53.034;18.576;2023-08-24T07:07:05;5.32;;;2.90;;
70927;SDS011;58587;53.034;18.576;2023-08-24T07:09:30;5.47;;;2.67;;
70927;SDS011;58587;53.034;18.576;2023-08-24T07:11:56;3.65;;;2.60;;
70927;SDS011;58587;53.034;18.576;2023-08-24T07:14:21;6.87;;;2.50;;
70927;SDS011;58587;53.034;18.576;2023-08-24T07:16:46;5.30;;;2.53;;
70927;SDS011;58587;53.034;18.576;2023-08-24T07:19:12;6.47;;;2.60;;
70927;SDS011;58587;53.034;18.576;2023-08-24T07:21:37;4.20;;;2.37;;
70927;SDS011;58587;53.034;18.576;2023-08-24T07:24:03;2.30;;;1.70;;
70927;SDS011;58587;53.034;18.576;2023-08-24T07:26:28;4.45;;;2.17;;
70927;SDS011;58587;53.034;18.576;2023-08-24T07:28:55;4.07;;;2.20;;
70927;SDS011;58587;53.034;18.576;2023-08-24T07:31:20;5.67;;;2.40;;
70927;SDS011;58587;53.034;18.576;2023-08-24T07:33:46;3.40;;;2.03;;
70927;SDS011;58587;53.034;18.576;2023-08-24T07:36:11;3.73;;;2.20;;
70927;SDS011;58587;53.034;18.576;2023-08-24T07:38:36;3.67;;;1.90;;
70927;SDS011;58587;53.034;18.576;2023-08-24T07:41:02;3.10;;;2.13;;
70927;SDS011;58587;53.034;18.576;2023-08-24T07:43:28;3.50;;;1.53;;
70927;SDS011;58587;53.034;18.576;2023-08-24T07:45:54;2.85;;;1.90;;
70927;SDS011;58587;53.034;18.576;2023-08-24T07:48:19;7.95;;;2.00;;
70927;SDS011;58587;53.034;18.576;2023-08-24T07:50:45;3.10;;;1.60;;
70927;SDS011;58587;53.034;18.576;2023-08-24T07:53:10;4.37;;;1.60;;
70927;SDS011;58587;53.034;18.576;2023-08-24T07:55:35;4.20;;;1.60;;
70927;SDS011;58587;53.034;18.576;2023-08-24T07:58:01;2.80;;;1.40;;
70927;SDS011;58587;53.034;18.576;2023-08-24T08:00:26;3.73;;;1.70;;
70927;SDS011;58587;53.034;18.576;2023-08-24T08:02:51;3.73;;;1.60;;
70927;SDS011;58587;53.034;18.576;2023-08-24T08:05:17;5.00;;;1.88;;
70927;SDS011;58587;53.034;18.576;2023-08-24T08:07:43;4.60;;;1.50;;
70927;SDS011;58587;53.034;18.576;2023-08-24T08:10:08;5.37;;;1.77;;
70927;SDS011;58587;53.034;18.576;2023-08-24T08:12:34;3.25;;;1.30;;
70927;SDS011;58587;53.034;18.576;2023-08-24T08:15:00;2.60;;;1.60;;
70927;SDS011;58587;53.034;18.576;2023-08-24T08:17:26;3.93;;;1.37;;
70927;SDS011;58587;53.034;18.576;2023-08-24T08:19:56;3.33;;;1.48;;
70927;SDS011;58587;53.034;18.576;2023-08-24T08:22:22;2.83;;;1.58;;
70927;SDS011;58587;53.034;18.576;2023-08-24T08:24:47;2.93;;;1.30;;
70927;SDS011;58587;53.034;18.576;2023-08-24T08:27:13;3.28;;;1.60;;
70927;SDS011;58587;53.034;18.576;2023-08-24T08:29:38;3.70;;;1.90;;
70927;SDS011;58587;53.034;18.576;2023-08-24T08:32:04;4.10;;;1.93;;
70927;SDS011;58587;53.034;18.576;2023-08-24T08:34:30;2.30;;;1.48;;
70927;SDS011;58587;53.034;18.576;2023-08-24T08:36:56;2.63;;;1.20;;
70927;SDS011;58587;53.034;18.576;2023-08-24T08:39:22;1.65;;;1.05;;
70927;SDS011;58587;53.034;18.576;2023-08-24T08:41:47;1.63;;;1.17;;
70927;SDS011;58587;53.034;18.576;2023-08-24T08:44:14;2.30;;;1.20;;
70927;SDS011;58587;53.034;18.576;2023-08-24T08:46:41;2.15;;;1.27;;
70927;SDS011;58587;53.034;18.576;2023-08-24T08:49:08;4.95;;;1.40;;
70927;SDS011;58587;53.034;18.576;2023-08-24T08:51:37;3.15;;;1.38;;
70927;SDS011;58587;53.034;18.576;2023-08-24T08:54:03;2.13;;;0.98;;
70927;SDS011;58587;53.034;18.576;2023-08-24T08:56:30;2.63;;;1.33;;
70927;SDS011;58587;53.034;18.576;2023-08-24T08:58:56;1.30;;;1.13;;
70927;SDS011;58587;53.034;18.576;2023-08-24T09:01:24;1.73;;;1.13;;
70927;SDS011;58587;53.034;18.576;2023-08-24T09:03:51;2.95;;;1.45;;
70927;SDS011;58587;53.034;18.576;2023-08-24T09:06:17;2.60;;;1.63;;
70927;SDS011;58587;53.034;18.576;2023-08-24T09:08:42;2.13;;;1.50;;
70927;SDS011;58587;53.034;18.576;2023-08-24T09:11:09;2.42;;;1.10;;
70927;SDS011;58587;53.034;18.576;2023-08-24T09:13:35;1.80;;;1.30;;
70927;SDS011;58587;53.034;18.576;2023-08-24T09:16:06;4.30;;;1.30;;
70927;SDS011;58587;53.034;18.576;2023-08-24T09:18:34;2.63;;;1.37;;
70927;SDS011;58587;53.034;18.576;2023-08-24T09:21:07;1.88;;;1.05;;
70927;SDS011;58587;53.034;18.576;2023-08-24T09:23:33;2.10;;;1.17;;
70927;SDS011;58587;53.034;18.576;2023-08-24T09:25:58;2.77;;;1.30;;
70927;SDS011;58587;53.034;18.576;2023-08-24T09:28:23;1.70;;;1.47;;
70927;SDS011;58587;53.034;18.576;2023-08-24T09:30:52;3.28;;;1.30;;
70927;SDS011;58587;53.034;18.576;2023-08-24T09:33:19;3.15;;;1.48;;
70927;SDS011;58587;53.034;18.576;2023-08-24T09:35:50;2.85;;;1.30;;
70927;SDS011;58587;53.034;18.576;2023-08-24T09:38:17;3.13;;;1.30;;
70927;SDS011;58587;53.034;18.576;2023-08-24T09:40:44;3.03;;;1.30;;
70927;SDS011;58587;53.034;18.576;2023-08-24T09:43:14;2.20;;;1.30;;
70927;SDS011;58587;53.034;18.576;2023-08-24T09:46:00;3.27;;;1.20;;
70927;SDS011;58587;53.034;18.576;2023-08-24T09:48:25;1.35;;;1.20;;
70927;SDS011;58587;53.034;18.576;2023-08-24T09:50:50;2.50;;;1.07;;
70927;SDS011;58587;53.034;18.576;2023-08-24T09:53:17;1.58;;;1.00;;
70927;SDS011;58587;53.034;18.576;2023-08-24T09:55:49;3.50;;;1.38;;
70927;SDS011;58587;53.034;18.576;2023-08-24T09:58:20;2.57;;;1.30;;
70927;SDS011;58587;53.034;18.576;2023-08-24T10:00:47;3.03;;;1.20;;
70927;SDS011;58587;53.034;18.576;2023-08-24T10:03:15;4.13;;;1.10;;
70927;SDS011;58587;53.034;18.576;2023-08-24T10:05:45;4.35;;;1.10;;
70927;SDS011;58587;53.034;18.576;2023-08-24T10:08:12;3.00;;;1.20;;
70927;SDS011;58587;53.034;18.576;2023-08-24T10:10:40;2.90;;;1.07;;
70927;SDS011;58587;53.034;18.576;2023-08-24T10:13:18;2.38;;;1.25;;
70927;SDS011;58587;53.034;18.576;2023-08-24T10:15:54;2.83;;;1.30;;
70927;SDS011;58587;53.034;18.576;2023-08-24T10:18:21;2.88;;;1.30;;
70927;SDS011;58587;53.034;18.576;2023-08-24T10:20:49;2.53;;;1.33;;
70927;SDS011;58587;53.034;18.576;2023-08-24T10:23:15;4.53;;;1.00;;
70927;SDS011;58587;53.034;18.576;2023-08-24T10:25:41;3.20;;;1.17;;
70927;SDS011;58587;53.034;18.576;2023-08-24T10:28:09;3.03;;;1.10;;
70927;SDS011;58587;53.034;18.576;2023-08-24T10:30:36;3.10;;;1.10;;
70927;SDS011;58587;53.034;18.576;2023-08-24T10:33:02;2.25;;;1.25;;
70927;SDS011;58587;53.034;18.576;2023-08-24T10:35:29;3.60;;;0.93;;
70927;SDS011;58587;53.034;18.576;2023-08-24T10:37:54;2.33;;;1.23;;
70927;SDS011;58587;53.034;18.576;2023-08-24T10:40:32;1.40;;;0.90;;
70927;SDS011;58587;53.034;18.576;2023-08-24T10:43:01;2.70;;;1.10;;
70927;SDS011;58587;53.034;18.576;2023-08-24T10:45:28;3.70;;;1.50;;
70927;SDS011;58587;53.034;18.576;2023-08-24T10:48:24;1.67;;;1.17;;
70927;SDS011;58587;53.034;18.576;2023-08-24T10:53:39;3.28;;;1.23;;
70927;SDS011;58587;53.034;18.576;2023-08-24T10:56:11;2.90;;;1.00;;
70927;SDS011;58587;53.034;18.576;2023-08-24T10:58:37;1.92;;;1.30;;
70927;SDS011;58587;53.034;18.576;2023-08-24T11:01:03;2.10;;;1.20;;
70927;SDS011;58587;53.034;18.576;2023-08-24T11:03:31;2.17;;;1.50;;
70927;SDS011;58587;53.034;18.576;2023-08-24T11:05:58;4.35;;;1.48;;
70927;SDS011;58587;53.034;18.576;2023-08-24T11:08:43;1.70;;;1.20;;
70927;SDS011;58587;53.034;18.576;2023-08-24T11:11:19;2.28;;;1.58;;
70927;SDS011;58587;53.034;18.576;2023-08-24T11:16:51;3.70;;;1.30;;
70927;SDS011;58587;53.034;18.576;2023-08-24T11:19:17;2.00;;;1.23;;
70927;SDS011;58587;53.034;18.576;2023-08-24T11:21:43;2.08;;;1.65;;
70927;SDS011;58587;53.034;18.576;2023-08-24T11:24:10;3.33;;;1.30;;
70927;SDS011;58587;53.034;18.576;2023-08-24T11:26:44;2.67;;;1.27;;
70927;SDS011;58587;53.034;18.576;2023-08-24T11:29:11;2.95;;;1.60;;
70927;SDS011;58587;53.034;18.576;2023-08-24T11:31:36;2.30;;;1.23;;
70927;SDS011;58587;53.034;18.576;2023-08-24T11:34:03;3.67;;;1.40;;
70927;SDS011;58587;53.034;18.576;2023-08-24T11:36:29;3.05;;;1.60;;
70927;SDS011;58587;53.034;18.576;2023-08-24T11:39:06;2.55;;;1.30;;
70927;SDS011;58587;53.034;18.576;2023-08-24T11:41:31;2.87;;;1.20;;
70927;SDS011;58587;53.034;18.576;2023-08-24T11:44:00;3.87;;;1.60;;
70927;SDS011;58587;53.034;18.576;2023-08-24T11:46:27;7.07;;;1.40;;
70927;SDS011;58587;53.034;18.576;2023-08-24T11:48:53;3.33;;;1.50;;
70927;SDS011;58587;53.034;18.576;2023-08-24T11:51:19;3.33;;;1.50;;
70927;SDS011;58587;53.034;18.576;2023-08-24T11:53:44;2.40;;;1.20;;
70927;SDS011;58587;53.034;18.576;2023-08-24T11:56:11;3.58;;;1.70;;
70927;SDS011;58587;53.034;18.576;2023-08-24T11:58:41;2.38;;;1.25;;
70927;SDS011;58587;53.034;18.576;2023-08-24T12:01:08;3.35;;;1.58;;
70927;SDS011;58587;53.034;18.576;2023-08-24T12:03:34;3.30;;;1.30;;
70927;SDS011;58587;53.034;18.576;2023-08-24T12:06:01;3.00;;;1.25;;
70927;SDS011;58587;53.034;18.576;2023-08-24T12:08:28;3.15;;;1.60;;
70927;SDS011;58587;53.034;18.576;2023-08-24T12:10:53;2.83;;;1.60;;
70927;SDS011;58587;53.034;18.576;2023-08-24T12:13:19;2.42;;;1.70;;
70927;SDS011;58587;53.034;18.576;2023-08-24T12:15:44;2.13;;;1.40;;
70927;SDS011;58587;53.034;18.576;2023-08-24T12:18:12;3.65;;;1.92;;
70927;SDS011;58587;53.034;18.576;2023-08-24T12:20:39;4.43;;;1.50;;
70927;SDS011;58587;53.034;18.576;2023-08-24T12:23:05;2.40;;;1.60;;
70927;SDS011;58587;53.034;18.576;2023-08-24T12:25:35;2.95;;;1.77;;
70927;SDS011;58587;53.034;18.576;2023-08-24T12:28:11;2.95;;;1.42;;
70927;SDS011;58587;53.034;18.576;2023-08-24T12:31:12;2.20;;;1.75;;
70927;SDS011;58587;53.034;18.576;2023-08-24T12:33:31;2.00;;;1.50;;
70927;SDS011;58587;53.034;18.576;2023-08-24T12:35:56;1.80;;;1.70;;
70927;SDS011;58587;53.034;18.576;2023-08-24T12:38:24;2.50;;;1.77;;
70927;SDS011;58587;53.034;18.576;2023-08-24T12:40:50;3.90;;;1.70;;
70927;SDS011;58587;53.034;18.576;2023-08-24T12:43:16;4.25;;;1.60;;
70927;SDS011;58587;53.034;18.576;2023-08-24T12:45:41;4.40;;;1.87;;
70927;SDS011;58587;53.034;18.576;2023-08-24T12:48:07;2.83;;;1.97;;
70927;SDS011;58587;53.034;18.576;2023-08-24T12:50:37;3.90;;;1.98;;
70927;SDS011;58587;53.034;18.576;2023-08-24T12:53:03;3.15;;;2.00;;
70927;SDS011;58587;53.034;18.576;2023-08-24T12:55:31;4.38;;;1.90;;
70927;SDS011;58587;53.034;18.576;2023-08-24T12:57:56;2.33;;;1.93;;
70927;SDS011;58587;53.034;18.576;2023-08-24T13:00:22;3.17;;;2.10;;
70927;SDS011;58587;53.034;18.576;2023-08-24T13:02:50;2.73;;;1.70;;
70927;SDS011;58587;53.034;18.576;2023-08-24T13:05:16;3.03;;;2.00;;
70927;SDS011;58587;53.034;18.576;2023-08-24T13:07:41;4.15;;;1.90;;
70927;SDS011;58587;53.034;18.576;2023-08-24T13:10:07;4.13;;;2.17;;
70927;SDS011;58587;53.034;18.576;2023-08-24T13:12:34;3.30;;;1.83;;
70927;SDS011;58587;53.034;18.576;2023-08-24T13:15:00;2.97;;;2.30;;
70927;SDS011;58587;53.034;18.576;2023-08-24T13:17:26;5.03;;;2.47;;
70927;SDS011;58587;53.034;18.576;2023-08-24T13:19:52;3.70;;;2.33;;
70927;SDS011;58587;53.034;18.576;2023-08-24T13:22:17;3.90;;;2.15;;
70927;SDS011;58587;53.034;18.576;2023-08-24T13:24:42;3.37;;;2.00;;
70927;SDS011;58587;53.034;18.576;2023-08-24T13:27:09;4.03;;;2.78;;
70927;SDS011;58587;53.034;18.576;2023-08-24T13:29:35;2.83;;;2.30;;
70927;SDS011;58587;53.034;18.576;2023-08-24T13:32:01;4.13;;;2.65;;
70927;SDS011;58587;53.034;18.576;2023-08-24T13:34:26;5.37;;;2.80;;
70927;SDS011;58587;53.034;18.576;2023-08-24T13:36:52;3.57;;;2.20;;
70927;SDS011;58587;53.034;18.576;2023-08-24T13:39:17;3.38;;;2.10;;
70927;SDS011;58587;53.034;18.576;2023-08-24T13:41:42;3.97;;;2.10;;
70927;SDS011;58587;53.034;18.576;2023-08-24T13:44:07;3.10;;;2.03;;
70927;SDS011;58587;53.034;18.576;2023-08-24T13:46:34;3.42;;;2.28;;
70927;SDS011;58587;53.034;18.576;2023-08-24T13:48:59;2.13;;;1.93;;
70927;SDS011;58587;53.034;18.576;2023-08-24T13:51:24;2.87;;;2.00;;
70927;SDS011;58587;53.034;18.576;2023-08-24T13:53:50;3.23;;;2.23;;
70927;SDS011;58587;53.034;18.576;2023-08-24T13:56:15;3.13;;;2.10;;
70927;SDS011;58587;53.034;18.576;2023-08-24T13:58:40;3.63;;;1.90;;
70927;SDS011;58587;53.034;18.576;2023-08-24T14:01:06;3.50;;;2.00;;
70927;SDS011;58587;53.034;18.576;2023-08-24T14:03:31;2.90;;;1.90;;
70927;SDS011;58587;53.034;18.576;2023-08-24T14:05:57;3.50;;;1.70;;
70927;SDS011;58587;53.034;18.576;2023-08-24T14:08:23;4.85;;;2.03;;
70927;SDS011;58587;53.034;18.576;2023-08-24T14:10:48;3.03;;;1.90;;
70927;SDS011;58587;53.034;18.576;2023-08-24T14:13:14;3.78;;;2.03;;
70927;SDS011;58587;53.034;18.576;2023-08-24T14:15:40;3.15;;;1.98;;
70927;SDS011;58587;53.034;18.576;2023-08-24T14:18:05;4.07;;;2.13;;
70927;SDS011;58587;53.034;18.576;2023-08-24T14:20:31;5.80;;;2.03;;
70927;SDS011;58587;53.034;18.576;2023-08-24T14:22:56;4.07;;;1.83;;
70927;SDS011;58587;53.034;18.576;2023-08-24T14:25:22;4.73;;;1.90;;
70927;SDS011;58587;53.034;18.576;2023-08-24T14:27:47;2.90;;;2.13;;
70927;SDS011;58587;53.034;18.576;2023-08-24T14:30:13;2.40;;;1.80;;
70927;SDS011;58587;53.034;18.576;2023-08-24T14:32:39;4.63;;;2.20;;
70927;SDS011;58587;53.034;18.576;2023-08-24T14:35:04;4.43;;;2.17;;
70927;SDS011;58587;53.034;18.576;2023-08-24T14:37:30;3.22;;;2.03;;